Time;durP1;ratioP1;P1;durP2;ratioP2;P2;SDS_P1;SDS_P2;PMS_P1;PMS_P2;Temp;Humidity;BMP_temperature;BMP_pressure;BME280_temperature;BME280_humidity;BME280_pressure;Samples;Min_cycle;Max_cycle;Signal;HPM_P1;HPM_P2
2021/07/16 00:01:57;;;;;;;14.48;7.13;;;16.50;99.90;;;;;;5051760;28;20017;-73
2021/07/16 00:04:23;;;;;;;12.18;6.80;;;16.50;99.90;;;;;;5050695;28;20025;-73
2021/07/16 00:06:49;;;;;;;19.63;8.00;;;16.50;99.90;;;;;;5051286;28;20066;-74
2021/07/16 00:09:15;;;;;;;14.32;7.93;;;16.40;99.90;;;;;;5051408;28;20029;-72
2021/07/16 00:11:41;;;;;;;18.75;8.23;;;16.40;99.90;;;;;;5051668;28;20032;-74
2021/07/16 00:14:07;;;;;;;12.75;7.93;;;16.40;99.90;;;;;;5051587;28;20065;-73
2021/07/16 00:16:33;;;;;;;11.77;8.13;;;16.40;99.90;;;;;;5051081;28;20024;-72
2021/07/16 00:18:58;;;;;;;17.55;8.70;;;16.40;99.90;;;;;;5053180;28;20052;-73
2021/07/16 00:21:24;;;;;;;20.80;8.85;;;16.40;99.90;;;;;;5055353;28;20044;-72
2021/07/16 00:23:50;;;;;;;11.07;7.75;;;16.30;99.90;;;;;;5054116;28;20017;-72
2021/07/16 00:26:16;;;;;;;21.80;7.95;;;16.30;99.90;;;;;;5055377;28;20086;-72
2021/07/16 00:28:43;;;;;;;19.85;9.00;;;16.30;99.90;;;;;;5054937;28;20017;-72
2021/07/16 00:31:08;;;;;;;18.58;8.82;;;16.40;99.90;;;;;;5054508;28;20511;-73
2021/07/16 00:33:34;;;;;;;14.65;7.90;;;16.30;99.90;;;;;;5054889;28;20025;-74
2021/07/16 00:36:00;;;;;;;17.30;7.97;;;16.20;99.90;;;;;;5040583;28;20029;-74
2021/07/16 00:38:26;;;;;;;13.52;8.00;;;16.20;99.90;;;;;;5054396;28;20025;-74
2021/07/16 00:40:51;;;;;;;16.40;7.65;;;16.20;99.90;;;;;;5054725;28;20461;-72
2021/07/16 00:43:17;;;;;;;21.80;8.30;;;16.20;99.90;;;;;;5055223;28;20079;-73
2021/07/16 00:45:42;;;;;;;18.63;7.05;;;16.20;99.90;;;;;;5054355;28;20440;-73
2021/07/16 00:48:08;;;;;;;16.63;7.35;;;16.20;99.90;;;;;;5054166;28;20041;-73
2021/07/16 00:50:36;;;;;;;14.80;7.93;;;16.20;99.90;;;;;;5053966;28;20099;-73
2021/07/16 00:53:04;;;;;;;13.23;7.10;;;16.20;99.90;;;;;;5053081;28;20052;-73
2021/07/16 00:55:30;;;;;;;13.82;6.70;;;16.10;99.90;;;;;;5053550;28;20075;-73
2021/07/16 00:57:56;;;;;;;18.95;8.07;;;16.10;99.90;;;;;;5053900;28;20021;-73
2021/07/16 01:00:23;;;;;;;13.13;7.60;;;16.20;99.90;;;;;;5053484;28;20025;-73
2021/07/16 01:02:49;;;;;;;12.98;8.32;;;16.30;99.90;;;;;;5053339;28;20384;-73
2021/07/16 01:05:19;;;;;;;20.52;8.93;;;16.10;99.90;;;;;;5053448;28;20044;-73
2021/07/16 01:07:47;;;;;;;19.50;8.32;;;16.10;99.90;;;;;;5052954;28;20051;-73
2021/07/16 01:10:13;;;;;;;19.83;7.85;;;16.10;99.90;;;;;;5053597;28;20468;-72
2021/07/16 01:12:41;;;;;;;16.25;8.85;;;16.10;99.90;;;;;;5053714;28;20035;-72
2021/07/16 01:15:09;;;;;;;26.98;8.55;;;16.10;99.90;;;;;;5053714;28;20029;-73
2021/07/16 01:17:36;;;;;;;17.02;8.13;;;16.10;99.90;;;;;;5054219;28;20458;-73
2021/07/16 01:20:07;;;;;;;22.30;9.10;;;16.10;99.90;;;;;;5052850;28;20025;-73
2021/07/16 01:22:33;;;;;;;;;;;16.10;99.90;;;;;;5054507;28;20464;-73
2021/07/16 01:25:02;;;;;;;21.92;9.27;;;16.00;99.90;;;;;;5053825;28;19932;-73
2021/07/16 01:27:31;;;;;;;23.27;8.93;;;16.00;99.90;;;;;;5053614;28;20032;-73
2021/07/16 01:29:58;;;;;;;29.63;8.55;;;16.00;99.90;;;;;;5052757;28;20376;-72
2021/07/16 01:32:26;;;;;;;25.02;9.48;;;16.00;99.90;;;;;;5054823;28;20029;-73
2021/07/16 01:34:51;;;;;;;24.27;8.68;;;16.00;99.90;;;;;;5052944;28;20119;-73
2021/07/16 01:37:17;;;;;;;16.25;8.07;;;16.00;99.90;;;;;;5054054;28;20115;-73
2021/07/16 01:39:43;;;;;;;26.48;8.30;;;16.00;99.90;;;;;;5054088;28;20025;-73
2021/07/16 01:42:10;;;;;;;15.35;7.68;;;15.90;99.90;;;;;;5062078;28;20107;-73
2021/07/16 01:44:38;;;;;;;13.27;8.38;;;15.90;99.90;;;;;;5073884;28;20078;-73
2021/07/16 01:47:04;;;;;;;20.42;8.32;;;15.90;99.90;;;;;;5073101;28;20468;-73
2021/07/16 01:49:30;;;;;;;10.90;7.85;;;15.90;99.90;;;;;;5072584;28;20032;-73
2021/07/16 01:51:56;;;;;;;17.98;7.93;;;15.90;99.90;;;;;;5073431;28;20016;-73
2021/07/16 01:54:24;;;;;;;22.30;8.90;;;15.90;99.90;;;;;;5073615;28;20041;-73
2021/07/16 01:56:50;;;;;;;19.02;8.48;;;15.80;99.90;;;;;;5072287;28;20074;-73
2021/07/16 01:59:16;;;;;;;13.50;7.53;;;15.80;99.90;;;;;;5073214;28;20050;-75
2021/07/16 02:01:41;;;;;;;19.45;8.13;;;15.90;99.90;;;;;;5072405;28;20029;-72
2021/07/16 02:04:07;;;;;;;29.45;8.00;;;15.90;99.90;;;;;;5072907;28;20024;-74
2021/07/16 02:06:34;;;;;;;20.15;7.97;;;15.80;99.90;;;;;;5059265;28;20033;-72
2021/07/16 02:09:01;;;;;;;22.40;7.85;;;15.90;99.90;;;;;;5073160;28;20024;-72
2021/07/16 02:11:28;;;;;;;23.45;7.97;;;15.80;99.90;;;;;;5073390;28;20027;-73
2021/07/16 02:13:53;;;;;;;22.55;7.50;;;15.80;99.90;;;;;;5067395;28;20040;-72
2021/07/16 02:16:21;;;;;;;21.60;7.72;;;15.80;99.90;;;;;;5064187;28;20029;-73
2021/07/16 02:18:52;;;;;;;25.90;7.18;;;15.80;99.90;;;;;;5072927;28;20020;-74
2021/07/16 02:21:18;;;;;;;14.52;7.57;;;15.80;99.90;;;;;;5072532;28;20042;-73
2021/07/16 02:23:47;;;;;;;21.60;8.00;;;15.70;99.90;;;;;;5072197;28;20395;-73
2021/07/16 02:26:12;;;;;;;21.58;7.50;;;15.70;99.90;;;;;;5064372;28;20068;-72
2021/07/16 02:28:38;;;;;;;19.42;7.70;;;15.70;99.90;;;;;;5066721;28;20111;-73
2021/07/16 02:31:11;;;;;;;18.33;7.10;;;15.70;99.90;;;;;;5072255;28;20021;-72
2021/07/16 02:33:37;;;;;;;14.25;6.78;;;15.60;99.90;;;;;;5072739;28;20108;-74
2021/07/16 02:36:06;;;;;;;15.57;6.50;;;15.60;99.90;;;;;;5072551;28;20024;-74
2021/07/16 02:38:33;;;;;;;18.85;6.72;;;15.60;99.90;;;;;;5072027;28;20024;-72
2021/07/16 02:40:58;;;;;;;21.58;7.45;;;15.60;99.90;;;;;;5072331;28;20028;-72
2021/07/16 02:43:25;;;;;;;12.82;5.95;;;15.60;99.90;;;;;;5072391;28;20066;-73
2021/07/16 02:45:51;;;;;;;15.85;6.80;;;15.60;99.90;;;;;;5071495;28;20027;-73
2021/07/16 02:48:17;;;;;;;18.80;5.43;;;15.60;99.90;;;;;;5072652;28;20028;-74
2021/07/16 02:50:46;;;;;;;21.70;6.38;;;15.60;99.90;;;;;;5072529;28;20481;-73
2021/07/16 02:53:15;;;;;;;18.02;6.47;;;15.50;99.90;;;;;;5071626;28;20487;-73
2021/07/16 02:55:41;;;;;;;13.13;5.63;;;15.50;99.90;;;;;;5071951;28;20033;-73
2021/07/16 02:58:07;;;;;;;17.02;5.70;;;15.50;99.90;;;;;;5070173;28;20025;-73
2021/07/16 03:00:35;;;;;;;12.13;5.68;;;15.50;99.90;;;;;;5072214;28;20039;-73
2021/07/16 03:03:03;;;;;;;21.63;6.93;;;15.50;99.90;;;;;;5057955;28;20025;-73
2021/07/16 03:05:31;;;;;;;23.83;6.10;;;15.50;99.90;;;;;;5071766;28;20508;-73
2021/07/16 03:07:58;;;;;;;17.02;7.20;;;15.40;99.90;;;;;;5071976;28;20146;-73
2021/07/16 03:10:27;;;;;;;18.00;5.35;;;15.40;99.90;;;;;;5071845;28;20041;-72
2021/07/16 03:12:57;;;;;;;18.80;5.65;;;15.40;99.90;;;;;;5071594;28;20021;-73
2021/07/16 03:15:24;;;;;;;19.90;6.27;;;15.40;99.90;;;;;;5072694;28;20044;-74
2021/07/16 03:17:50;;;;;;;15.77;5.22;;;15.40;99.90;;;;;;5071773;28;20267;-73
2021/07/16 03:20:29;;;;;;;18.10;6.28;;;15.40;99.90;;;;;;5070660;28;20044;-74
2021/07/16 03:22:55;;;;;;;16.80;4.97;;;15.40;99.90;;;;;;5071773;28;20534;-73
2021/07/16 03:25:22;;;;;;;21.83;6.15;;;15.40;99.90;;;;;;5072060;28;20024;-72
2021/07/16 03:27:48;;;;;;;20.15;5.70;;;15.40;99.90;;;;;;5071096;28;20605;-74
2021/07/16 03:30:17;;;;;;;21.63;5.88;;;15.40;99.90;;;;;;5072265;28;20049;-73
2021/07/16 03:32:43;;;;;;;14.88;5.82;;;15.40;99.90;;;;;;5072074;28;20103;-73
2021/07/16 03:35:10;;;;;;;15.85;5.13;;;15.40;99.90;;;;;;5070984;28;20439;-73
2021/07/16 03:37:36;;;;;;;18.90;5.60;;;15.40;99.90;;;;;;5053856;28;20025;-74
2021/07/16 03:40:04;;;;;;;19.83;5.88;;;15.40;99.90;;;;;;5071280;28;20120;-73
2021/07/16 03:42:31;;;;;;;16.77;5.70;;;15.30;99.90;;;;;;5071720;28;20032;-74
2021/07/16 03:44:57;;;;;;;14.48;5.65;;;15.30;99.90;;;;;;5071529;28;20033;-73
2021/07/16 03:47:22;;;;;;;24.05;7.18;;;15.30;99.90;;;;;;5070887;28;20024;-72
2021/07/16 03:49:48;;;;;;;16.33;5.30;;;15.30;99.90;;;;;;5071181;28;20043;-73
2021/07/16 03:52:14;;;;;;;20.75;5.50;;;15.30;99.90;;;;;;5071772;28;20016;-73
2021/07/16 03:54:40;;;;;;;10.60;5.18;;;15.30;99.90;;;;;;5074093;28;20032;-73
2021/07/16 03:57:06;;;;;;;14.57;6.10;;;15.30;99.90;;;;;;5075633;28;20074;-73
2021/07/16 03:59:37;;;;;;;17.50;5.80;;;15.30;99.90;;;;;;5058186;28;20466;-74
2021/07/16 04:02:03;;;;;;;16.25;5.00;;;15.30;99.90;;;;;;5074871;28;20016;-74
2021/07/16 04:04:29;;;;;;;23.70;6.18;;;15.30;99.90;;;;;;5075343;28;20044;-73
2021/07/16 04:06:56;;;;;;;19.88;6.32;;;15.30;99.90;;;;;;5075517;28;20029;-73
2021/07/16 04:09:32;;;;;;;19.30;5.85;;;15.40;99.90;;;;;;5074726;28;20150;-73
2021/07/16 04:12:11;;;;;;;21.17;6.03;;;15.40;99.90;;;;;;5075466;28;20020;-73
2021/07/16 04:14:39;;;;;;;19.73;5.75;;;15.30;99.90;;;;;;5075509;28;20032;-74
2021/07/16 04:17:08;;;;;;;24.13;6.00;;;15.40;99.90;;;;;;5074736;28;20020;-74
2021/07/16 04:19:33;;;;;;;15.90;5.80;;;15.40;99.90;;;;;;5075359;28;20035;-73
2021/07/16 04:22:03;;;;;;;24.35;5.70;;;15.40;99.90;;;;;;5074928;28;20103;-73
2021/07/16 04:24:36;;;;;;;19.30;5.95;;;15.40;99.90;;;;;;5074901;28;20032;-73
2021/07/16 04:27:03;;;;;;;24.52;6.38;;;15.40;99.90;;;;;;5074994;28;20020;-72
2021/07/16 04:29:29;;;;;;;19.95;5.50;;;15.40;99.90;;;;;;5075418;28;20210;-73
2021/07/16 04:31:54;;;;;;;18.85;5.90;;;15.40;99.90;;;;;;5075161;28;20055;-73
2021/07/16 04:34:20;;;;;;;19.15;5.15;;;15.50;99.90;;;;;;5075796;28;20452;-74
2021/07/16 04:36:46;;;;;;;18.10;5.43;;;15.40;99.90;;;;;;5075154;28;20476;-73
2021/07/16 04:39:12;;;;;;;22.45;5.47;;;15.40;99.90;;;;;;5075430;28;20028;-72
2021/07/16 04:41:38;;;;;;;21.73;6.13;;;15.40;99.90;;;;;;5075098;28;20020;-72
2021/07/16 04:44:04;;;;;;;12.82;5.78;;;15.40;99.90;;;;;;5073884;28;20040;-72
2021/07/16 04:46:30;;;;;;;17.90;4.85;;;15.40;99.90;;;;;;5075438;28;20020;-73
2021/07/16 04:48:55;;;;;;;22.35;6.35;;;15.40;99.90;;;;;;5074332;28;20495;-73
2021/07/16 04:51:39;;;;;;;17.40;5.70;;;15.40;99.90;;;;;;5074438;28;20107;-74
2021/07/16 04:54:06;;;;;;;22.05;5.95;;;15.40;99.90;;;;;;5074851;28;20380;-74
2021/07/16 04:56:32;;;;;;;19.90;7.10;;;15.40;99.90;;;;;;5074197;28;20100;-73
2021/07/16 04:59:10;;;;;;;24.30;5.57;;;15.60;99.90;;;;;;5062871;28;20437;-75
2021/07/16 05:01:38;;;;;;;19.77;4.95;;;15.40;99.90;;;;;;5059398;28;20048;-72
2021/07/16 05:04:04;;;;;;;16.60;5.95;;;15.40;99.90;;;;;;5062997;28;20064;-73
2021/07/16 05:06:30;;;;;;;19.83;5.57;;;15.50;99.90;;;;;;5069541;28;20089;-74
2021/07/16 05:08:55;;;;;;;18.23;5.20;;;15.50;99.90;;;;;;5074096;28;20467;-74
2021/07/16 05:11:22;;;;;;;19.17;4.97;;;15.50;99.90;;;;;;5060307;28;20028;-73
2021/07/16 05:13:48;;;;;;;24.98;5.57;;;15.50;99.90;;;;;;5073567;28;20024;-73
2021/07/16 05:16:16;;;;;;;18.60;4.60;;;15.60;99.90;;;;;;5074320;28;20029;-73
2021/07/16 05:18:42;;;;;;;24.23;5.53;;;15.60;99.90;;;;;;5059604;28;20048;-73
2021/07/16 05:21:10;;;;;;;12.18;4.25;;;15.60;99.90;;;;;;5073774;28;20055;-73
2021/07/16 05:23:36;;;;;;;20.10;4.93;;;15.60;99.90;;;;;;5059829;28;20021;-72
2021/07/16 05:26:02;;;;;;;23.33;5.30;;;15.60;99.90;;;;;;5073221;28;20019;-72
2021/07/16 05:28:29;;;;;;;20.73;4.80;;;15.70;99.90;;;;;;5074298;28;20377;-73
2021/07/16 05:30:55;;;;;;;19.23;5.65;;;15.70;99.90;;;;;;5073472;28;20460;-73
2021/07/16 05:33:20;;;;;;;26.10;6.15;;;15.80;99.90;;;;;;5062353;28;20582;-73
2021/07/16 05:35:47;;;;;;;22.27;5.93;;;15.80;99.90;;;;;;5052809;28;20152;-73
2021/07/16 05:38:13;;;;;;;19.23;5.10;;;15.90;99.90;;;;;;5045881;28;20071;-73
2021/07/16 05:40:39;;;;;;;19.67;4.63;;;16.00;99.90;;;;;;5051204;28;20025;-72
2021/07/16 05:43:09;;;;;;;20.85;5.18;;;16.00;99.90;;;;;;5052741;28;20083;-73
2021/07/16 05:45:36;;;;;;;19.23;5.10;;;16.00;99.90;;;;;;5050785;28;20037;-73
2021/07/16 05:48:03;;;;;;;18.38;4.50;;;16.10;99.90;;;;;;5052992;28;20052;-73
2021/07/16 05:50:29;;;;;;;20.98;5.20;;;16.00;99.90;;;;;;5054829;28;20357;-73
2021/07/16 05:52:55;;;;;;;17.90;5.57;;;16.00;99.90;;;;;;5052923;28;20017;-73
2021/07/16 05:55:21;;;;;;;25.70;5.43;;;16.10;99.90;;;;;;5052454;28;20029;-73
2021/07/16 05:57:47;;;;;;;22.48;5.47;;;16.10;99.90;;;;;;5052313;28;20017;-73
2021/07/16 06:00:13;;;;;;;22.77;4.43;;;16.00;99.90;;;;;;5052512;28;20078;-74
2021/07/16 06:02:39;;;;;;;20.15;5.10;;;16.00;99.90;;;;;;5052614;28;20048;-74
2021/07/16 06:05:05;;;;;;;22.15;4.97;;;16.00;99.90;;;;;;5052686;28;20127;-73
2021/07/16 06:07:31;;;;;;;18.98;4.53;;;16.10;99.90;;;;;;5048340;28;20477;-73
2021/07/16 06:09:57;;;;;;;22.85;4.97;;;16.10;99.90;;;;;;5046430;28;20051;-73
2021/07/16 06:12:22;;;;;;;21.27;4.60;;;16.20;99.90;;;;;;5041703;28;20044;-74
2021/07/16 06:14:55;;;;;;;17.85;4.65;;;16.20;99.90;;;;;;5038420;28;20041;-72
2021/07/16 06:17:25;;;;;;;17.83;4.43;;;16.30;99.90;;;;;;5043781;28;20026;-74
2021/07/16 06:19:52;;;;;;;15.25;4.55;;;16.40;99.90;;;;;;5049389;28;20476;-72
2021/07/16 06:22:17;;;;;;;15.20;3.80;;;16.40;99.90;;;;;;5046172;28;20611;-73
2021/07/16 06:24:43;;;;;;;19.52;5.00;;;16.50;99.90;;;;;;5040589;28;20108;-72
2021/07/16 06:27:09;;;;;;;18.23;4.78;;;16.50;99.90;;;;;;5048019;28;20048;-74
2021/07/16 06:29:35;;;;;;;31.10;6.50;;;16.50;99.90;;;;;;5048578;28;20063;-72
2021/07/16 06:32:01;;;;;;;15.02;4.05;;;16.50;99.90;;;;;;5043414;28;20163;-72
2021/07/16 06:34:27;;;;;;;25.17;4.75;;;16.50;99.90;;;;;;5038037;28;20516;-73
2021/07/16 06:36:52;;;;;;;21.85;5.20;;;16.50;99.90;;;;;;5046332;28;20128;-73
2021/07/16 06:39:18;;;;;;;15.48;4.00;;;16.50;99.90;;;;;;5047016;28;20021;-74
2021/07/16 06:41:45;;;;;;;23.23;4.57;;;16.40;99.90;;;;;;5039618;28;20116;-75
2021/07/16 06:44:10;;;;;;;16.42;4.47;;;16.30;99.90;;;;;;5038505;28;20033;-75
2021/07/16 06:46:36;;;;;;;20.65;5.60;;;16.30;99.90;;;;;;5032509;28;20120;-74
2021/07/16 06:49:03;;;;;;;14.70;4.25;;;16.30;99.90;;;;;;5034685;28;20051;-74
2021/07/16 06:51:30;;;;;;;19.85;4.97;;;16.20;99.90;;;;;;5034937;28;20029;-73
2021/07/16 06:53:57;;;;;;;21.90;4.60;;;16.30;99.90;;;;;;5036840;28;20039;-74
2021/07/16 06:56:23;;;;;;;22.52;5.35;;;16.20;99.90;;;;;;5032747;28;20527;-75
2021/07/16 06:58:51;;;;;;;19.95;4.72;;;16.20;99.90;;;;;;5040459;28;20035;-75
2021/07/16 07:01:18;;;;;;;23.50;4.60;;;16.30;99.90;;;;;;5040651;28;20045;-75
2021/07/16 07:03:43;;;;;;;22.05;5.28;;;16.20;99.90;;;;;;5042749;28;20036;-75
2021/07/16 07:06:09;;;;;;;15.10;3.92;;;16.30;99.90;;;;;;5040172;28;20065;-76
2021/07/16 07:08:35;;;;;;;18.05;4.47;;;16.30;99.90;;;;;;5039477;28;20461;-75
2021/07/16 07:11:00;;;;;;;25.35;6.13;;;16.40;99.90;;;;;;5052562;28;20059;-73
2021/07/16 07:13:26;;;;;;;16.20;4.78;;;16.40;99.90;;;;;;5060370;28;20468;-74
2021/07/16 07:15:52;;;;;;;18.20;4.43;;;16.40;99.90;;;;;;5052102;28;20052;-75
2021/07/16 07:18:17;;;;;;;19.08;4.85;;;16.40;99.90;;;;;;5051940;28;20097;-74
2021/07/16 07:20:43;;;;;;;23.23;5.00;;;16.40;99.90;;;;;;5052593;28;20126;-73
2021/07/16 07:23:08;;;;;;;17.98;4.45;;;16.50;99.90;;;;;;5051910;28;20037;-74
2021/07/16 07:25:34;;;;;;;19.92;5.05;;;16.50;99.90;;;;;;5054419;28;20028;-74
2021/07/16 07:28:00;;;;;;;18.10;4.60;;;16.60;99.90;;;;;;5053158;28;20013;-75
2021/07/16 07:30:26;;;;;;;26.13;5.97;;;16.70;99.90;;;;;;5059296;28;20025;-74
2021/07/16 07:32:51;;;;;;;28.35;5.43;;;16.80;99.90;;;;;;5055421;28;20464;-74
2021/07/16 07:35:17;;;;;;;18.83;4.68;;;16.90;99.90;;;;;;5058480;28;20053;-74
2021/07/16 07:37:43;;;;;;;27.20;4.90;;;17.00;99.90;;;;;;5056081;28;20025;-74
2021/07/16 07:40:14;;;;;;;14.75;4.60;;;17.00;99.90;;;;;;5049461;28;20129;-72
2021/07/16 07:42:40;;;;;;;21.00;4.95;;;17.10;99.90;;;;;;5049807;28;20025;-74
2021/07/16 07:45:07;;;;;;;25.83;4.70;;;17.10;99.90;;;;;;5048531;28;20098;-74
2021/07/16 07:47:34;;;;;;;17.73;5.00;;;17.20;99.90;;;;;;5044192;28;20060;-74
2021/07/16 07:50:03;;;;;;;16.05;5.15;;;17.20;99.90;;;;;;5049300;28;20020;-74
2021/07/16 07:52:29;;;;;;;16.70;4.97;;;17.20;99.90;;;;;;5036645;28;20029;-74
2021/07/16 07:54:55;;;;;;;19.40;4.55;;;17.50;99.90;;;;;;5050875;28;20511;-74
2021/07/16 07:57:24;;;;;;;18.35;5.35;;;17.50;99.90;;;;;;5046102;28;20522;-73
2021/07/16 07:59:49;;;;;;;17.25;5.32;;;17.60;99.90;;;;;;5053190;28;20055;-73
2021/07/16 08:02:15;;;;;;;22.13;5.13;;;17.60;99.90;;;;;;5055601;28;20451;-73
2021/07/16 08:04:41;;;;;;;23.15;5.00;;;17.30;99.90;;;;;;5055284;28;20037;-74
2021/07/16 08:07:07;;;;;;;26.90;5.68;;;17.30;99.90;;;;;;5055231;28;20078;-74
2021/07/16 08:09:33;;;;;;;18.95;5.03;;;17.40;99.90;;;;;;5054537;28;20013;-75
2021/07/16 08:12:01;;;;;;;28.75;5.20;;;17.50;99.90;;;;;;5055171;28;20029;-74
2021/07/16 08:14:26;;;;;;;26.92;5.28;;;17.40;99.90;;;;;;5054377;28;20040;-72
2021/07/16 08:16:52;;;;;;;25.40;5.90;;;17.40;99.90;;;;;;5055065;28;20456;-74
2021/07/16 08:19:18;;;;;;;16.67;5.22;;;17.40;99.90;;;;;;5055347;28;20388;-73
2021/07/16 08:21:47;;;;;;;16.23;5.05;;;17.50;99.90;;;;;;5073795;28;20441;-73
2021/07/16 08:24:13;;;;;;;23.40;6.15;;;17.60;99.90;;;;;;5075085;28;20016;-73
2021/07/16 08:26:39;;;;;;;16.20;4.57;;;17.70;99.90;;;;;;5061050;28;20032;-73
2021/07/16 08:29:05;;;;;;;22.45;5.07;;;17.80;99.90;;;;;;5066427;28;20055;-68
2021/07/16 08:31:31;;;;;;;21.55;4.70;;;18.00;99.90;;;;;;5057906;28;20028;-72
2021/07/16 08:33:56;;;;;;;20.02;4.43;;;17.80;99.90;;;;;;5054450;28;20021;-73
2021/07/16 08:36:22;;;;;;;26.08;4.95;;;17.80;99.90;;;;;;5061926;28;20034;-72
2021/07/16 08:38:50;;;;;;;24.45;4.90;;;17.90;99.90;;;;;;5057058;28;20017;-73
2021/07/16 08:41:16;;;;;;;18.10;6.00;;;17.80;99.90;;;;;;5062704;28;20465;-73
2021/07/16 08:43:44;;;;;;;22.10;5.05;;;17.90;99.90;;;;;;5054200;28;20032;-73
2021/07/16 08:46:13;;;;;;;21.65;5.57;;;18.10;99.90;;;;;;5054421;28;20109;-68
2021/07/16 08:48:40;;;;;;;28.30;6.15;;;18.20;99.90;;;;;;5073376;28;20029;-70
2021/07/16 08:51:08;;;;;;;12.25;5.35;;;18.20;99.90;;;;;;5073775;28;20101;-68
2021/07/16 08:53:34;;;;;;;22.92;4.88;;;18.30;99.90;;;;;;5074856;28;20399;-72
2021/07/16 08:55:59;;;;;;;23.13;4.72;;;18.40;99.90;;;;;;5076544;28;20043;-68
2021/07/16 08:58:25;;;;;;;28.38;5.57;;;18.30;99.90;;;;;;5074509;28;20020;-73
2021/07/16 09:00:51;;;;;;;19.85;5.68;;;18.30;99.90;;;;;;5062852;28;20059;-73
2021/07/16 09:03:17;;;;;;;22.08;4.70;;;18.40;99.90;;;;;;5066320;28;20045;-72
2021/07/16 09:05:47;;;;;;;25.83;5.45;;;18.50;99.90;;;;;;5053125;28;20118;-73
2021/07/16 09:08:20;;;;;;;;;;;18.50;99.90;;;;;;5054660;28;20380;-74
2021/07/16 09:10:51;;;;;;;25.40;5.20;;;18.70;99.90;;;;;;5053555;28;19951;-72
2021/07/16 09:13:20;;;;;;;22.25;5.32;;;18.80;99.90;;;;;;5054526;28;20024;-71
2021/07/16 09:15:48;;;;;;;22.45;4.85;;;18.80;99.90;;;;;;5054494;28;20029;-73
2021/07/16 09:18:23;;;;;;;18.55;5.10;;;18.80;99.90;;;;;;5053533;28;20040;-72
2021/07/16 09:21:07;;;;;;;19.33;4.50;;;19.00;99.90;;;;;;5051800;28;20133;-73
2021/07/16 09:23:46;;;;;;;28.75;5.78;;;19.10;99.90;;;;;;5054274;28;20021;-73
2021/07/16 09:26:27;;;;;;;21.48;5.68;;;19.30;99.90;;;;;;5054578;28;20028;-73
2021/07/16 09:28:55;;;;;;;31.63;5.95;;;19.50;99.90;;;;;;5054604;28;20107;-73
2021/07/16 09:31:43;;;;;;;16.02;5.35;;;19.40;99.90;;;;;;5051939;28;20080;-74
2021/07/16 09:34:11;;;;;;;18.58;5.13;;;19.30;99.90;;;;;;5050041;28;20040;-74
2021/07/16 09:36:38;;;;;;;28.42;7.57;;;19.30;99.90;;;;;;5050399;28;20037;-73
2021/07/16 09:39:06;;;;;;;25.90;5.57;;;19.50;99.90;;;;;;5053762;28;20377;-74
2021/07/16 09:41:33;;;;;;;27.13;5.55;;;19.40;99.90;;;;;;5055578;28;20044;-73
2021/07/16 09:44:02;;;;;;;26.75;7.47;;;19.30;99.90;;;;;;5053448;28;20025;-74
2021/07/16 09:46:28;;;;;;;19.33;5.30;;;19.30;99.90;;;;;;5062460;28;20032;-73
2021/07/16 09:49:24;;;;;;;23.33;5.65;;;19.20;99.90;;;;;;5073208;28;20032;-73
2021/07/16 09:51:49;;;;;;;25.13;5.60;;;19.20;99.90;;;;;;5045015;28;20039;-73
2021/07/16 09:54:15;;;;;;;25.63;6.07;;;19.20;99.90;;;;;;5054551;28;20032;-73
2021/07/16 09:56:42;;;;;;;23.80;6.20;;;19.90;99.90;;;;;;5073557;28;20063;-72
2021/07/16 09:59:17;;;;;;;26.45;6.82;;;19.80;99.90;;;;;;5072848;28;20388;-73
2021/07/16 10:01:45;;;;;;;26.70;5.75;;;19.30;99.90;;;;;;5072611;28;20025;-73
2021/07/16 10:04:23;;;;;;;20.73;5.13;;;19.20;99.90;;;;;;5052941;28;20542;-72
2021/07/16 10:06:54;;;;;;;19.35;5.43;;;19.30;99.90;;;;;;5052337;28;20053;-70
2021/07/16 10:09:22;;;;;;;22.08;6.32;;;19.40;99.90;;;;;;5054065;28;20859;-68
2021/07/16 10:11:56;;;;;;;16.42;6.13;;;19.70;99.90;;;;;;5051252;28;20029;-69
2021/07/16 10:14:25;;;;;;;17.15;5.13;;;20.00;99.90;;;;;;5049504;28;20587;-72
2021/07/16 10:17:06;;;;;;;22.77;5.15;;;20.00;99.90;;;;;;5053334;28;20457;-70
2021/07/16 10:19:32;;;;;;;23.13;5.10;;;20.30;99.90;;;;;;5050234;28;20029;-70
2021/07/16 10:21:58;;;;;;;27.23;6.80;;;20.70;99.90;;;;;;5062212;28;20028;-70
2021/07/16 10:24:26;;;;;;;21.48;5.07;;;20.60;99.90;;;;;;5072109;28;20039;-73
2021/07/16 10:26:52;;;;;;;17.67;5.57;;;20.60;99.90;;;;;;5061505;28;20024;-70
2021/07/16 10:29:48;;;;;;;23.55;5.13;;;20.70;99.90;;;;;;5072199;28;20029;-70
2021/07/16 10:32:53;;;;;;;28.58;7.10;;;20.80;99.90;;;;;;5040975;28;20025;-72
2021/07/16 10:35:38;;;;;;;15.85;4.60;;;20.90;99.90;;;;;;5047237;28;20041;-69
2021/07/16 10:38:31;;;;;;;24.45;5.72;;;20.90;99.90;;;;;;5051924;28;20029;-68
2021/07/16 10:40:57;;;;;;;24.52;5.55;;;20.70;99.90;;;;;;5041494;28;20040;-71
2021/07/16 10:43:26;;;;;;;23.05;5.45;;;20.50;99.90;;;;;;5050857;28;20626;-70
2021/07/16 10:45:52;;;;;;;22.70;5.03;;;20.40;99.90;;;;;;5052269;28;20045;-70
2021/07/16 10:48:19;;;;;;;25.90;5.30;;;20.40;99.90;;;;;;5052233;28;20055;-70
2021/07/16 10:50:52;;;;;;;14.93;5.30;;;20.50;99.90;;;;;;5051876;28;20052;-71
2021/07/16 10:53:26;;;;;;;22.27;5.93;;;20.70;99.90;;;;;;5049392;28;20031;-71
2021/07/16 10:55:55;;;;;;;20.60;6.43;;;20.90;99.90;;;;;;5051131;28;20499;-71
2021/07/16 10:58:35;;;;;;;29.67;5.30;;;20.80;99.90;;;;;;5051460;28;20028;-70
2021/07/16 11:01:05;;;;;;;;;;;20.80;99.90;;;;;;5051660;28;20116;-70
2021/07/16 11:03:39;;;;;;;22.10;5.70;;;20.80;99.90;;;;;;5050744;28;20015;-71
2021/07/16 11:06:06;;;;;;;17.77;5.40;;;20.80;99.90;;;;;;5049872;28;20123;-71
2021/07/16 11:08:39;;;;;;;15.65;4.72;;;20.80;99.90;;;;;;5047854;28;20056;-71
2021/07/16 11:11:06;;;;;;;24.63;6.13;;;21.00;99.90;;;;;;5050959;28;20031;-70
2021/07/16 11:13:42;;;;;;;22.50;5.65;;;21.10;99.90;;;;;;5048754;28;20045;-71
2021/07/16 11:16:29;;;;;;;19.67;6.20;;;21.20;99.90;;;;;;5050492;28;20120;-70
2021/07/16 11:19:03;;;;;;;22.17;6.43;;;21.40;99.90;;;;;;5051758;28;20032;-70
2021/07/16 11:21:46;;;;;;;21.35;6.05;;;21.40;99.90;;;;;;5048502;28;20060;-70
2021/07/16 11:26:50;;;;;;;20.33;6.13;;;21.30;99.90;;;;;;5051048;28;20064;-70
2021/07/16 11:29:17;;;;;;;24.48;6.57;;;21.20;99.90;;;;;;5051926;28;20044;-71
2021/07/16 11:31:43;;;;;;;23.58;6.60;;;21.30;99.90;;;;;;5051152;28;20021;-70
2021/07/16 11:34:15;;;;;;;28.77;6.53;;;21.30;99.90;;;;;;5052137;28;20098;-72
2021/07/16 11:36:51;;;;;;;24.75;6.72;;;21.40;99.90;;;;;;5052030;28;20120;-70
2021/07/16 11:39:38;;;;;;;26.70;6.88;;;21.30;99.90;;;;;;5058370;28;20037;-72
2021/07/16 11:42:06;;;;;;;16.92;5.93;;;21.40;99.90;;;;;;5047555;28;20123;-71
2021/07/16 11:44:41;;;;;;;21.27;5.68;;;21.70;99.90;;;;;;5051722;28;20028;-71
2021/07/16 11:47:18;;;;;;;18.98;5.47;;;21.60;99.90;;;;;;5051342;28;20017;-71
2021/07/16 11:49:46;;;;;;;23.25;6.28;;;21.70;99.90;;;;;;5051788;28;20028;-73
2021/07/16 11:52:17;;;;;;;19.98;6.25;;;21.70;99.90;;;;;;5063562;28;20040;-70
2021/07/16 11:54:44;;;;;;;20.63;6.22;;;21.70;99.90;;;;;;5056848;28;20029;-70
2021/07/16 11:57:14;;;;;;;26.67;6.13;;;21.90;99.90;;;;;;5072707;28;20040;-71
2021/07/16 11:59:44;;;;;;;;;;;21.60;99.90;;;;;;5071792;28;20025;-72
2021/07/16 12:02:12;;;;;;;22.20;6.47;;;21.60;99.90;;;;;;5062976;28;19995;-70
2021/07/16 12:04:42;;;;;;;22.95;6.78;;;21.80;99.90;;;;;;5053501;28;20028;-70
2021/07/16 12:07:09;;;;;;;20.27;6.40;;;21.90;99.90;;;;;;5070977;28;20028;-71
2021/07/16 12:09:44;;;;;;;31.30;6.70;;;21.70;99.90;;;;;;5062039;28;20075;-71
2021/07/16 12:12:14;;;;;;;28.08;6.57;;;21.60;99.90;;;;;;5044256;28;20033;-69
2021/07/16 12:14:48;;;;;;;26.65;6.22;;;21.50;99.90;;;;;;5033852;28;20043;-70
2021/07/16 12:17:16;;;;;;;17.00;5.90;;;21.40;99.90;;;;;;5058809;28;20443;-70
2021/07/16 12:19:42;;;;;;;20.92;8.00;;;21.40;99.90;;;;;;5054906;28;20028;-70
2021/07/16 12:22:08;;;;;;;25.40;6.10;;;21.50;99.90;;;;;;5053563;28;20017;-70
2021/07/16 12:24:34;;;;;;;21.83;6.78;;;21.70;99.90;;;;;;5054923;28;20029;-70
2021/07/16 12:27:13;;;;;;;20.27;6.30;;;22.00;99.90;;;;;;5053696;28;20036;-70
2021/07/16 12:29:39;;;;;;;27.15;7.45;;;21.90;99.90;;;;;;5048899;28;20025;-71
2021/07/16 12:32:06;;;;;;;23.52;6.90;;;21.90;99.90;;;;;;5051206;28;20017;-72
2021/07/16 12:34:32;;;;;;;24.83;7.05;;;22.10;99.90;;;;;;5037213;28;20052;-71
2021/07/16 12:37:16;;;;;;;25.95;7.22;;;22.20;99.90;;;;;;5037836;28;20029;-71
2021/07/16 12:39:44;;;;;;;27.13;8.20;;;22.30;99.90;;;;;;5048728;28;20021;-70
2021/07/16 12:42:11;;;;;;;27.85;7.40;;;22.10;99.90;;;;;;5049052;28;20079;-70
2021/07/16 12:44:38;;;;;;;19.60;6.40;;;22.10;99.90;;;;;;5046616;28;20032;-70
2021/07/16 12:47:04;;;;;;;26.42;7.63;;;22.30;99.90;;;;;;5040616;28;20099;-71